sensor_id;sensor_type;location;lat;lon;timestamp;temperature;humidity
11532;DHT22;5822;51.000;5.874;2022-10-22T00:00:53;17.00;99.90
11532;DHT22;5822;51.000;5.874;2022-10-22T00:03:20;17.00;99.90
11532;DHT22;5822;51.000;5.874;2022-10-22T00:05:46;17.00;99.90
11532;DHT22;5822;51.000;5.874;2022-10-22T00:08:12;17.00;99.90
11532;DHT22;5822;51.000;5.874;2022-10-22T00:10:39;16.90;99.90
11532;DHT22;5822;51.000;5.874;2022-10-22T00:13:05;16.90;99.90
11532;DHT22;5822;51.000;5.874;2022-10-22T00:15:30;16.90;99.90
11532;DHT22;5822;51.000;5.874;2022-10-22T00:17:56;16.90;99.90
11532;DHT22;5822;51.000;5.874;2022-10-22T00:20:21;16.90;99.90
11532;DHT22;5822;51.000;5.874;2022-10-22T00:22:47;16.90;99.90
11532;DHT22;5822;51.000;5.874;2022-10-22T00:25:13;17.00;99.90
11532;DHT22;5822;51.000;5.874;2022-10-22T00:27:39;17.00;99.90
11532;DHT22;5822;51.000;5.874;2022-10-22T00:30:05;17.00;99.90
11532;DHT22;5822;51.000;5.874;2022-10-22T00:32:31;16.90;99.90
11532;DHT22;5822;51.000;5.874;2022-10-22T00:34:57;17.00;99.90
11532;DHT22;5822;51.000;5.874;2022-10-22T00:37:22;17.00;99.90
11532;DHT22;5822;51.000;5.874;2022-10-22T00:39:48;17.00;99.90
11532;DHT22;5822;51.000;5.874;2022-10-22T00:42:23;17.00;99.90
11532;DHT22;5822;51.000;5.874;2022-10-22T00:50:06;17.00;99.90
11532;DHT22;5822;51.000;5.874;2022-10-22T00:52:32;16.90;99.90
11532;DHT22;5822;51.000;5.874;2022-10-22T00:54:58;16.90;99.90
11532;DHT22;5822;51.000;5.874;2022-10-22T00:57:25;16.90;99.90
11532;DHT22;5822;51.000;5.874;2022-10-22T00:59:51;16.90;99.90
11532;DHT22;5822;51.000;5.874;2022-10-22T01:02:18;16.90;99.90
11532;DHT22;5822;51.000;5.874;2022-10-22T01:04:44;16.90;99.90
11532;DHT22;5822;51.000;5.874;2022-10-22T01:07:15;16.90;99.90
11532;DHT22;5822;51.000;5.874;2022-10-22T01:10:14;16.90;99.90
11532;DHT22;5822;51.000;5.874;2022-10-22T01:15:36;16.90;99.90
11532;DHT22;5822;51.000;5.874;2022-10-22T01:18:16;16.90;99.90
11532;DHT22;5822;51.000;5.874;2022-10-22T01:29:22;16.90;99.90
11532;DHT22;5822;51.000;5.874;2022-10-22T01:31:57;16.80;99.90
11532;DHT22;5822;51.000;5.874;2022-10-22T01:34:24;16.90;99.90
11532;DHT22;5822;51.000;5.874;2022-10-22T01:36:52;16.90;99.90
11532;DHT22;5822;51.000;5.874;2022-10-22T01:39:19;16.90;99.90
11532;DHT22;5822;51.000;5.874;2022-10-22T01:41:46;16.90;99.90
11532;DHT22;5822;51.000;5.874;2022-10-22T01:44:33;16.90;99.90
11532;DHT22;5822;51.000;5.874;2022-10-22T01:52:57;16.90;99.90
11532;DHT22;5822;51.000;5.874;2022-10-22T01:55:38;16.90;99.90
11532;DHT22;5822;51.000;5.874;2022-10-22T02:06:41;16.90;99.90
11532;DHT22;5822;51.000;5.874;2022-10-22T02:09:08;16.90;99.90
11532;DHT22;5822;51.000;5.874;2022-10-22T02:11:34;16.90;99.90
11532;DHT22;5822;51.000;5.874;2022-10-22T02:14:02;16.90;99.90
11532;DHT22;5822;51.000;5.874;2022-10-22T02:16:42;16.90;99.90
11532;DHT22;5822;51.000;5.874;2022-10-22T02:21:44;16.90;99.90
11532;DHT22;5822;51.000;5.874;2022-10-22T02:24:09;16.80;99.90
11532;DHT22;5822;51.000;5.874;2022-10-22T02:26:42;16.80;99.90
11532;DHT22;5822;51.000;5.874;2022-10-22T02:31:37;16.80;99.90
11532;DHT22;5822;51.000;5.874;2022-10-22T02:34:07;16.80;99.90
11532;DHT22;5822;51.000;5.874;2022-10-22T02:36:36;16.80;99.90
11532;DHT22;5822;51.000;5.874;2022-10-22T02:39:03;16.70;99.90
11532;DHT22;5822;51.000;5.874;2022-10-22T02:41:31;16.80;99.90
11532;DHT22;5822;51.000;5.874;2022-10-22T02:43:56;16.80;99.90
11532;DHT22;5822;51.000;5.874;2022-10-22T02:46:23;16.80;99.90
11532;DHT22;5822;51.000;5.874;2022-10-22T02:48:50;16.80;99.90
11532;DHT22;5822;51.000;5.874;2022-10-22T02:51:15;16.90;99.90
11532;DHT22;5822;51.000;5.874;2022-10-22T02:53:41;16.80;99.90
11532;DHT22;5822;51.000;5.874;2022-10-22T02:56:08;16.80;99.90
11532;DHT22;5822;51.000;5.874;2022-10-22T02:58:33;16.80;99.90
11532;DHT22;5822;51.000;5.874;2022-10-22T03:00:59;16.80;99.90
11532;DHT22;5822;51.000;5.874;2022-10-22T03:03:25;16.80;99.90
11532;DHT22;5822;51.000;5.874;2022-10-22T03:05:50;16.80;99.90
11532;DHT22;5822;51.000;5.874;2022-10-22T03:08:16;16.80;99.90
11532;DHT22;5822;51.000;5.874;2022-10-22T03:10:42;16.80;99.90
11532;DHT22;5822;51.000;5.874;2022-10-22T03:13:08;16.80;99.90
11532;DHT22;5822;51.000;5.874;2022-10-22T03:15:33;16.70;99.90
11532;DHT22;5822;51.000;5.874;2022-10-22T03:17:59;16.70;99.90
11532;DHT22;5822;51.000;5.874;2022-10-22T03:20:25;16.80;99.90
11532;DHT22;5822;51.000;5.874;2022-10-22T03:22:51;16.80;99.90
11532;DHT22;5822;51.000;5.874;2022-10-22T03:25:20;16.80;99.90
11532;DHT22;5822;51.000;5.874;2022-10-22T03:27:46;16.80;99.90
11532;DHT22;5822;51.000;5.874;2022-10-22T03:30:13;16.80;99.90
11532;DHT22;5822;51.000;5.874;2022-10-22T03:32:38;16.80;99.90
11532;DHT22;5822;51.000;5.874;2022-10-22T03:35:04;16.80;99.90
11532;DHT22;5822;51.000;5.874;2022-10-22T03:37:31;16.80;99.90
11532;DHT22;5822;51.000;5.874;2022-10-22T03:39:57;16.80;99.90
11532;DHT22;5822;51.000;5.874;2022-10-22T03:42:23;16.70;99.90
11532;DHT22;5822;51.000;5.874;2022-10-22T03:44:49;16.80;99.90
11532;DHT22;5822;51.000;5.874;2022-10-22T03:47:15;16.80;99.90
11532;DHT22;5822;51.000;5.874;2022-10-22T03:49:41;16.80;99.90
11532;DHT22;5822;51.000;5.874;2022-10-22T03:52:12;16.80;99.90
11532;DHT22;5822;51.000;5.874;2022-10-22T03:54:38;16.90;99.90
11532;DHT22;5822;51.000;5.874;2022-10-22T03:57:05;16.80;99.90
11532;DHT22;5822;51.000;5.874;2022-10-22T03:59:45;16.80;99.90
11532;DHT22;5822;51.000;5.874;2022-10-22T04:02:12;16.80;99.90
11532;DHT22;5822;51.000;5.874;2022-10-22T04:04:38;16.80;99.90
11532;DHT22;5822;51.000;5.874;2022-10-22T04:07:05;16.80;99.90
11532;DHT22;5822;51.000;5.874;2022-10-22T04:09:34;16.80;99.90
11532;DHT22;5822;51.000;5.874;2022-10-22T04:12:00;16.80;99.90
11532;DHT22;5822;51.000;5.874;2022-10-22T04:14:26;16.80;99.90
11532;DHT22;5822;51.000;5.874;2022-10-22T04:16:51;16.80;99.90
11532;DHT22;5822;51.000;5.874;2022-10-22T04:19:17;16.70;99.90
11532;DHT22;5822;51.000;5.874;2022-10-22T04:21:43;16.80;99.90
11532;DHT22;5822;51.000;5.874;2022-10-22T04:24:09;16.90;99.90
11532;DHT22;5822;51.000;5.874;2022-10-22T04:26:34;16.80;99.90
11532;DHT22;5822;51.000;5.874;2022-10-22T04:29:00;16.80;99.90
11532;DHT22;5822;51.000;5.874;2022-10-22T04:31:26;16.80;99.90
11532;DHT22;5822;51.000;5.874;2022-10-22T04:33:57;16.80;99.90
11532;DHT22;5822;51.000;5.874;2022-10-22T04:36:24;16.80;99.90
11532;DHT22;5822;51.000;5.874;2022-10-22T04:38:55;16.70;99.90
11532;DHT22;5822;51.000;5.874;2022-10-22T04:41:32;16.70;99.90
11532;DHT22;5822;51.000;5.874;2022-10-22T04:43:59;16.80;99.90
11532;DHT22;5822;51.000;5.874;2022-10-22T04:46:27;16.80;99.90
11532;DHT22;5822;51.000;5.874;2022-10-22T04:48:53;16.70;99.90
11532;DHT22;5822;51.000;5.874;2022-10-22T04:51:20;16.70;99.90
11532;DHT22;5822;51.000;5.874;2022-10-22T04:53:46;16.70;99.90
11532;DHT22;5822;51.000;5.874;2022-10-22T04:56:22;16.70;99.90
11532;DHT22;5822;51.000;5.874;2022-10-22T04:58:51;16.70;99.90
11532;DHT22;5822;51.000;5.874;2022-10-22T05:01:20;16.70;99.90
11532;DHT22;5822;51.000;5.874;2022-10-22T05:03:48;16.80;99.90
11532;DHT22;5822;51.000;5.874;2022-10-22T05:06:15;16.70;99.90
11532;DHT22;5822;51.000;5.874;2022-10-22T05:08:41;16.70;99.90
11532;DHT22;5822;51.000;5.874;2022-10-22T05:11:16;16.70;99.90
11532;DHT22;5822;51.000;5.874;2022-10-22T05:13:42;16.70;99.90
11532;DHT22;5822;51.000;5.874;2022-10-22T05:16:10;16.60;99.90
11532;DHT22;5822;51.000;5.874;2022-10-22T05:18:36;16.70;99.90
11532;DHT22;5822;51.000;5.874;2022-10-22T05:21:14;16.70;99.90
11532;DHT22;5822;51.000;5.874;2022-10-22T05:23:40;16.70;99.90
11532;DHT22;5822;51.000;5.874;2022-10-22T05:26:07;16.60;99.90
11532;DHT22;5822;51.000;5.874;2022-10-22T05:28:34;16.70;99.90
11532;DHT22;5822;51.000;5.874;2022-10-22T05:31:00;16.70;99.90
11532;DHT22;5822;51.000;5.874;2022-10-22T05:33:32;16.60;99.90
11532;DHT22;5822;51.000;5.874;2022-10-22T05:35:58;16.60;99.90
11532;DHT22;5822;51.000;5.874;2022-10-22T05:38:24;16.60;99.90
11532;DHT22;5822;51.000;5.874;2022-10-22T05:41:08;16.60;99.90
11532;DHT22;5822;51.000;5.874;2022-10-22T05:43:35;16.60;99.90
11532;DHT22;5822;51.000;5.874;2022-10-22T05:46:04;16.60;99.90
11532;DHT22;5822;51.000;5.874;2022-10-22T05:48:30;16.60;99.90
11532;DHT22;5822;51.000;5.874;2022-10-22T05:50:56;16.60;99.90
11532;DHT22;5822;51.000;5.874;2022-10-22T05:53:21;16.60;99.90
11532;DHT22;5822;51.000;5.874;2022-10-22T05:55:47;16.60;99.90
11532;DHT22;5822;51.000;5.874;2022-10-22T05:58:13;16.60;99.90
11532;DHT22;5822;51.000;5.874;2022-10-22T06:00:39;16.70;99.90
11532;DHT22;5822;51.000;5.874;2022-10-22T06:03:04;16.60;99.90
11532;DHT22;5822;51.000;5.874;2022-10-22T06:05:34;16.60;99.90
11532;DHT22;5822;51.000;5.874;2022-10-22T06:08:00;16.60;99.90
11532;DHT22;5822;51.000;5.874;2022-10-22T06:10:26;16.70;99.90
11532;DHT22;5822;51.000;5.874;2022-10-22T06:12:52;16.70;99.90
11532;DHT22;5822;51.000;5.874;2022-10-22T06:15:17;16.70;99.90
11532;DHT22;5822;51.000;5.874;2022-10-22T06:17:45;16.60;99.90
11532;DHT22;5822;51.000;5.874;2022-10-22T06:20:10;16.60;99.90
11532;DHT22;5822;51.000;5.874;2022-10-22T06:22:37;16.50;99.90
11532;DHT22;5822;51.000;5.874;2022-10-22T06:25:03;16.50;99.90
11532;DHT22;5822;51.000;5.874;2022-10-22T06:27:29;16.50;99.90
11532;DHT22;5822;51.000;5.874;2022-10-22T06:29:54;16.50;99.90
11532;DHT22;5822;51.000;5.874;2022-10-22T06:32:20;16.50;99.90
11532;DHT22;5822;51.000;5.874;2022-10-22T06:34:46;16.50;99.90
11532;DHT22;5822;51.000;5.874;2022-10-22T06:37:12;16.50;99.90
11532;DHT22;5822;51.000;5.874;2022-10-22T06:39:39;16.50;99.90
11532;DHT22;5822;51.000;5.874;2022-10-22T06:42:05;16.50;99.90
11532;DHT22;5822;51.000;5.874;2022-10-22T06:44:31;16.50;99.90
11532;DHT22;5822;51.000;5.874;2022-10-22T06:46:56;16.50;99.90
11532;DHT22;5822;51.000;5.874;2022-10-22T06:49:22;16.50;99.90
11532;DHT22;5822;51.000;5.874;2022-10-22T06:51:54;16.50;99.90
11532;DHT22;5822;51.000;5.874;2022-10-22T06:54:20;16.50;99.90
11532;DHT22;5822;51.000;5.874;2022-10-22T06:56:46;16.50;99.90
11532;DHT22;5822;51.000;5.874;2022-10-22T06:59:12;16.50;99.90
11532;DHT22;5822;51.000;5.874;2022-10-22T07:01:38;16.60;99.90
11532;DHT22;5822;51.000;5.874;2022-10-22T07:04:05;16.60;99.90
11532;DHT22;5822;51.000;5.874;2022-10-22T07:06:30;16.60;99.90
11532;DHT22;5822;51.000;5.874;2022-10-22T07:08:57;16.50;99.90
11532;DHT22;5822;51.000;5.874;2022-10-22T07:11:29;16.50;99.90
11532;DHT22;5822;51.000;5.874;2022-10-22T07:13:56;16.50;99.90
11532;DHT22;5822;51.000;5.874;2022-10-22T07:16:22;16.50;99.90
11532;DHT22;5822;51.000;5.874;2022-10-22T07:18:49;16.50;99.90
11532;DHT22;5822;51.000;5.874;2022-10-22T07:21:17;16.50;99.90
11532;DHT22;5822;51.000;5.874;2022-10-22T07:23:43;16.60;99.90
11532;DHT22;5822;51.000;5.874;2022-10-22T07:26:11;16.60;99.90
11532;DHT22;5822;51.000;5.874;2022-10-22T07:28:37;16.70;99.90
11532;DHT22;5822;51.000;5.874;2022-10-22T07:31:09;16.60;99.90
11532;DHT22;5822;51.000;5.874;2022-10-22T07:33:35;16.70;99.90
11532;DHT22;5822;51.000;5.874;2022-10-22T07:36:03;16.60;99.90
11532;DHT22;5822;51.000;5.874;2022-10-22T07:38:29;16.70;99.90
11532;DHT22;5822;51.000;5.874;2022-10-22T07:40:56;16.70;99.90
11532;DHT22;5822;51.000;5.874;2022-10-22T07:43:22;16.80;99.90
11532;DHT22;5822;51.000;5.874;2022-10-22T07:45:48;16.70;99.90
11532;DHT22;5822;51.000;5.874;2022-10-22T07:48:14;16.80;99.90
11532;DHT22;5822;51.000;5.874;2022-10-22T07:50:40;16.80;99.90
11532;DHT22;5822;51.000;5.874;2022-10-22T07:53:05;16.70;99.90
11532;DHT22;5822;51.000;5.874;2022-10-22T07:55:32;16.70;99.90
11532;DHT22;5822;51.000;5.874;2022-10-22T07:57:57;16.70;99.90
11532;DHT22;5822;51.000;5.874;2022-10-22T08:00:23;16.80;99.90
11532;DHT22;5822;51.000;5.874;2022-10-22T08:02:49;16.90;99.90
11532;DHT22;5822;51.000;5.874;2022-10-22T08:05:14;16.90;99.90
11532;DHT22;5822;51.000;5.874;2022-10-22T08:07:40;16.90;99.90
11532;DHT22;5822;51.000;5.874;2022-10-22T08:10:07;16.90;99.90
11532;DHT22;5822;51.000;5.874;2022-10-22T08:12:33;17.00;99.90
11532;DHT22;5822;51.000;5.874;2022-10-22T08:14:58;17.00;99.90
11532;DHT22;5822;51.000;5.874;2022-10-22T08:17:25;17.10;99.90
11532;DHT22;5822;51.000;5.874;2022-10-22T08:19:51;17.10;99.90
11532;DHT22;5822;51.000;5.874;2022-10-22T08:22:16;17.10;99.90
11532;DHT22;5822;51.000;5.874;2022-10-22T08:24:42;17.10;99.90
11532;DHT22;5822;51.000;5.874;2022-10-22T08:27:08;17.10;99.90
11532;DHT22;5822;51.000;5.874;2022-10-22T08:29:33;17.20;99.90
11532;DHT22;5822;51.000;5.874;2022-10-22T08:31:59;17.20;99.90
11532;DHT22;5822;51.000;5.874;2022-10-22T08:34:27;17.20;99.90
11532;DHT22;5822;51.000;5.874;2022-10-22T08:36:53;17.20;99.90
11532;DHT22;5822;51.000;5.874;2022-10-22T08:39:18;17.20;99.90
11532;DHT22;5822;51.000;5.874;2022-10-22T08:47:48;17.30;99.90
11532;DHT22;5822;51.000;5.874;2022-10-22T08:50:39;17.40;99.90
11532;DHT22;5822;51.000;5.874;2022-10-22T08:53:11;17.40;99.90
11532;DHT22;5822;51.000;5.874;2022-10-22T08:55:37;17.40;99.90
11532;DHT22;5822;51.000;5.874;2022-10-22T08:58:20;17.40;99.90
11532;DHT22;5822;51.000;5.874;2022-10-22T09:01:00;17.50;99.90
11532;DHT22;5822;51.000;5.874;2022-10-22T09:06:10;17.50;99.90
11532;DHT22;5822;51.000;5.874;2022-10-22T09:08:39;17.50;99.90
11532;DHT22;5822;51.000;5.874;2022-10-22T09:11:25;17.60;99.90
11532;DHT22;5822;51.000;5.874;2022-10-22T09:13:53;17.60;99.90
11532;DHT22;5822;51.000;5.874;2022-10-22T09:22:30;17.70;99.90
11532;DHT22;5822;51.000;5.874;2022-10-22T09:27:42;17.70;99.90
11532;DHT22;5822;51.000;5.874;2022-10-22T09:30:35;17.70;99.90
11532;DHT22;5822;51.000;5.874;2022-10-22T09:35:27;17.70;99.90
11532;DHT22;5822;51.000;5.874;2022-10-22T09:37:56;17.80;99.90
11532;DHT22;5822;51.000;5.874;2022-10-22T09:40:22;17.80;99.90
11532;DHT22;5822;51.000;5.874;2022-10-22T09:42:48;17.80;99.90
11532;DHT22;5822;51.000;5.874;2022-10-22T09:45:23;17.80;99.90
11532;DHT22;5822;51.000;5.874;2022-10-22T09:47:50;17.80;99.90
11532;DHT22;5822;51.000;5.874;2022-10-22T09:50:42;17.80;99.90
11532;DHT22;5822;51.000;5.874;2022-10-22T09:53:30;17.80;99.90
11532;DHT22;5822;51.000;5.874;2022-10-22T09:56:00;17.80;99.90
11532;DHT22;5822;51.000;5.874;2022-10-22T09:58:41;17.80;99.90
11532;DHT22;5822;51.000;5.874;2022-10-22T10:01:07;17.90;99.90
11532;DHT22;5822;51.000;5.874;2022-10-22T10:03:33;17.90;99.90
11532;DHT22;5822;51.000;5.874;2022-10-22T10:06:00;17.90;99.90
11532;DHT22;5822;51.000;5.874;2022-10-22T10:08:25;17.90;99.90
11532;DHT22;5822;51.000;5.874;2022-10-22T10:11:17;17.90;99.90
11532;DHT22;5822;51.000;5.874;2022-10-22T10:14:25;18.00;99.90
11532;DHT22;5822;51.000;5.874;2022-10-22T10:19:35;18.00;99.90
11532;DHT22;5822;51.000;5.874;2022-10-22T10:22:09;18.00;99.90
11532;DHT22;5822;51.000;5.874;2022-10-22T10:27:39;18.10;99.90
11532;DHT22;5822;51.000;5.874;2022-10-22T10:30:13;18.10;99.90
11532;DHT22;5822;51.000;5.874;2022-10-22T10:47:11;18.10;99.90
11532;DHT22;5822;51.000;5.874;2022-10-22T10:49:34;18.10;99.90
11532;DHT22;5822;51.000;5.874;2022-10-22T10:52:21;18.20;99.90
11532;DHT22;5822;51.000;5.874;2022-10-22T10:55:00;18.10;99.90
11532;DHT22;5822;51.000;5.874;2022-10-22T10:57:57;18.20;99.90
11532;DHT22;5822;51.000;5.874;2022-10-22T11:00:31;18.20;99.90
11532;DHT22;5822;51.000;5.874;2022-10-22T11:06:08;18.20;99.90
11532;DHT22;5822;51.000;5.874;2022-10-22T11:09:05;18.20;99.90
11532;DHT22;5822;51.000;5.874;2022-10-22T11:11:42;18.20;99.90
11532;DHT22;5822;51.000;5.874;2022-10-22T11:14:25;18.30;99.90
11532;DHT22;5822;51.000;5.874;2022-10-22T11:17:11;18.30;99.90
11532;DHT22;5822;51.000;5.874;2022-10-22T11:23:05;18.30;99.90
11532;DHT22;5822;51.000;5.874;2022-10-22T11:25:43;18.30;99.90
11532;DHT22;5822;51.000;5.874;2022-10-22T11:28:24;18.30;99.90
11532;DHT22;5822;51.000;5.874;2022-10-22T11:31:01;18.40;99.90
11532;DHT22;5822;51.000;5.874;2022-10-22T11:33:52;18.40;99.90
11532;DHT22;5822;51.000;5.874;2022-10-22T11:36:21;18.40;99.90
11532;DHT22;5822;51.000;5.874;2022-10-22T11:38:48;18.40;99.90
11532;DHT22;5822;51.000;5.874;2022-10-22T11:41:17;18.50;99.90
11532;DHT22;5822;51.000;5.874;2022-10-22T11:43:57;18.50;99.90
11532;DHT22;5822;51.000;5.874;2022-10-22T11:46:45;18.50;99.90
11532;DHT22;5822;51.000;5.874;2022-10-22T11:49:18;18.50;99.90
11532;DHT22;5822;51.000;5.874;2022-10-22T11:51:46;18.50;99.90
11532;DHT22;5822;51.000;5.874;2022-10-22T11:54:30;18.50;99.90
11532;DHT22;5822;51.000;5.874;2022-10-22T11:59:58;18.60;99.90
11532;DHT22;5822;51.000;5.874;2022-10-22T12:04:54;18.60;99.90
11532;DHT22;5822;51.000;5.874;2022-10-22T12:07:48;18.60;99.90
11532;DHT22;5822;51.000;5.874;2022-10-22T12:10:18;18.60;99.90
11532;DHT22;5822;51.000;5.874;2022-10-22T12:12:54;18.60;99.90
11532;DHT22;5822;51.000;5.874;2022-10-22T12:15:28;18.60;99.90
11532;DHT22;5822;51.000;5.874;2022-10-22T12:18:02;18.60;99.90
11532;DHT22;5822;51.000;5.874;2022-10-22T12:20:30;18.60;99.90
11532;DHT22;5822;51.000;5.874;2022-10-22T12:22:57;18.60;99.90
11532;DHT22;5822;51.000;5.874;2022-10-22T12:25:28;18.60;99.90
11532;DHT22;5822;51.000;5.874;2022-10-22T12:27:56;18.70;99.90
11532;DHT22;5822;51.000;5.874;2022-10-22T12:30:34;18.70;99.90
11532;DHT22;5822;51.000;5.874;2022-10-22T12:33:05;18.70;99.90
11532;DHT22;5822;51.000;5.874;2022-10-22T12:35:34;18.70;99.90
11532;DHT22;5822;51.000;5.874;2022-10-22T12:38:15;18.70;99.90
11532;DHT22;5822;51.000;5.874;2022-10-22T12:40:41;18.70;99.90
11532;DHT22;5822;51.000;5.874;2022-10-22T12:43:18;18.70;99.90
11532;DHT22;5822;51.000;5.874;2022-10-22T12:45:47;18.70;99.90
11532;DHT22;5822;51.000;5.874;2022-10-22T12:48:36;18.80;99.90
11532;DHT22;5822;51.000;5.874;2022-10-22T12:51:04;18.80;99.90
11532;DHT22;5822;51.000;5.874;2022-10-22T12:53:37;18.80;99.90
11532;DHT22;5822;51.000;5.874;2022-10-22T12:56:11;18.90;99.90
11532;DHT22;5822;51.000;5.874;2022-10-22T12:58:43;18.90;99.90
11532;DHT22;5822;51.000;5.874;2022-10-22T13:01:15;19.00;99.90
11532;DHT22;5822;51.000;5.874;2022-10-22T13:03:47;19.00;99.90
11532;DHT22;5822;51.000;5.874;2022-10-22T13:08:43;18.90;99.90
11532;DHT22;5822;51.000;5.874;2022-10-22T13:11:10;18.90;99.90
11532;DHT22;5822;51.000;5.874;2022-10-22T13:16:20;18.90;99.90
11532;DHT22;5822;51.000;5.874;2022-10-22T13:18:49;18.90;99.90
11532;DHT22;5822;51.000;5.874;2022-10-22T13:21:28;18.90;99.90
11532;DHT22;5822;51.000;5.874;2022-10-22T13:23:56;18.90;99.90
11532;DHT22;5822;51.000;5.874;2022-10-22T13:26:28;18.80;99.90
11532;DHT22;5822;51.000;5.874;2022-10-22T13:28:56;18.80;99.90
11532;DHT22;5822;51.000;5.874;2022-10-22T13:31:25;18.80;99.90
11532;DHT22;5822;51.000;5.874;2022-10-22T13:33:55;18.80;99.90
11532;DHT22;5822;51.000;5.874;2022-10-22T13:36:21;18.80;99.90
11532;DHT22;5822;51.000;5.874;2022-10-22T13:38:48;18.70;99.90
11532;DHT22;5822;51.000;5.874;2022-10-22T13:41:27;18.80;99.90
11532;DHT22;5822;51.000;5.874;2022-10-22T13:43:55;18.80;99.90
11532;DHT22;5822;51.000;5.874;2022-10-22T13:46:21;18.80;99.90
11532;DHT22;5822;51.000;5.874;2022-10-22T13:48:48;18.80;99.90
11532;DHT22;5822;51.000;5.874;2022-10-22T13:51:28;18.80;99.90
11532;DHT22;5822;51.000;5.874;2022-10-22T13:53:56;18.90;99.90
11532;DHT22;5822;51.000;5.874;2022-10-22T13:56:22;18.90;99.90
11532;DHT22;5822;51.000;5.874;2022-10-22T13:58:48;18.90;99.90
11532;DHT22;5822;51.000;5.874;2022-10-22T14:01:22;19.00;99.90
11532;DHT22;5822;51.000;5.874;2022-10-22T14:03:51;19.00;99.90
11532;DHT22;5822;51.000;5.874;2022-10-22T14:06:19;19.00;99.90
11532;DHT22;5822;51.000;5.874;2022-10-22T14:08:47;19.10;99.90
11532;DHT22;5822;51.000;5.874;2022-10-22T14:11:15;19.10;99.90
11532;DHT22;5822;51.000;5.874;2022-10-22T14:13:41;19.00;99.90
11532;DHT22;5822;51.000;5.874;2022-10-22T14:16:10;19.00;99.90
11532;DHT22;5822;51.000;5.874;2022-10-22T14:18:38;19.00;99.90
11532;DHT22;5822;51.000;5.874;2022-10-22T14:21:04;19.10;99.90
11532;DHT22;5822;51.000;5.874;2022-10-22T14:23:33;19.10;99.90
11532;DHT22;5822;51.000;5.874;2022-10-22T14:26:00;19.10;99.90
11532;DHT22;5822;51.000;5.874;2022-10-22T14:28:26;19.00;99.90
11532;DHT22;5822;51.000;5.874;2022-10-22T14:30:52;19.10;99.90
11532;DHT22;5822;51.000;5.874;2022-10-22T14:33:22;19.20;99.90
11532;DHT22;5822;51.000;5.874;2022-10-22T14:35:48;19.10;99.90
11532;DHT22;5822;51.000;5.874;2022-10-22T14:38:15;19.00;99.90
11532;DHT22;5822;51.000;5.874;2022-10-22T14:40:41;19.10;99.90
11532;DHT22;5822;51.000;5.874;2022-10-22T14:43:29;19.10;99.90
11532;DHT22;5822;51.000;5.874;2022-10-22T14:45:55;19.00;99.90
11532;DHT22;5822;51.000;5.874;2022-10-22T14:48:21;19.10;99.90
11532;DHT22;5822;51.000;5.874;2022-10-22T14:50:47;19.10;99.90
11532;DHT22;5822;51.000;5.874;2022-10-22T14:53:14;19.10;99.90
11532;DHT22;5822;51.000;5.874;2022-10-22T14:55:44;19.20;99.90
11532;DHT22;5822;51.000;5.874;2022-10-22T14:58:12;19.10;99.90
11532;DHT22;5822;51.000;5.874;2022-10-22T15:00:40;19.10;99.90
11532;DHT22;5822;51.000;5.874;2022-10-22T15:03:05;19.10;99.90
11532;DHT22;5822;51.000;5.874;2022-10-22T15:05:31;19.10;99.90
11532;DHT22;5822;51.000;5.874;2022-10-22T15:07:57;19.00;99.90
11532;DHT22;5822;51.000;5.874;2022-10-22T15:10:24;19.00;99.90
11532;DHT22;5822;51.000;5.874;2022-10-22T15:12:49;19.00;99.90
11532;DHT22;5822;51.000;5.874;2022-10-22T15:15:15;18.90;99.90
11532;DHT22;5822;51.000;5.874;2022-10-22T15:17:40;18.90;99.90
11532;DHT22;5822;51.000;5.874;2022-10-22T15:20:06;18.80;99.90
11532;DHT22;5822;51.000;5.874;2022-10-22T15:22:33;18.80;99.90
11532;DHT22;5822;51.000;5.874;2022-10-22T15:25:01;18.80;99.90
11532;DHT22;5822;51.000;5.874;2022-10-22T15:27:26;18.70;99.90
11532;DHT22;5822;51.000;5.874;2022-10-22T15:29:52;18.70;99.90
11532;DHT22;5822;51.000;5.874;2022-10-22T15:32:18;18.70;99.90
11532;DHT22;5822;51.000;5.874;2022-10-22T15:34:43;18.60;99.90
11532;DHT22;5822;51.000;5.874;2022-10-22T15:37:11;18.60;99.90
11532;DHT22;5822;51.000;5.874;2022-10-22T15:39:40;18.60;99.90
11532;DHT22;5822;51.000;5.874;2022-10-22T15:42:07;18.60;99.90
11532;DHT22;5822;51.000;5.874;2022-10-22T15:44:34;18.50;99.90
11532;DHT22;5822;51.000;5.874;2022-10-22T15:47:02;18.50;99.90
11532;DHT22;5822;51.000;5.874;2022-10-22T15:49:28;18.50;99.90
11532;DHT22;5822;51.000;5.874;2022-10-22T15:51:54;18.50;99.90
11532;DHT22;5822;51.000;5.874;2022-10-22T15:54:22;18.50;99.90
11532;DHT22;5822;51.000;5.874;2022-10-22T15:56:48;18.50;99.90
11532;DHT22;5822;51.000;5.874;2022-10-22T15:59:15;18.50;99.90
11532;DHT22;5822;51.000;5.874;2022-10-22T16:01:41;18.50;99.90
11532;DHT22;5822;51.000;5.874;2022-10-22T16:04:07;18.50;99.90
11532;DHT22;5822;51.000;5.874;2022-10-22T16:06:42;18.50;99.90
11532;DHT22;5822;51.000;5.874;2022-10-22T16:09:11;18.40;99.90
11532;DHT22;5822;51.000;5.874;2022-10-22T16:11:37;18.40;99.90
11532;DHT22;5822;51.000;5.874;2022-10-22T16:14:04;18.50;99.90
11532;DHT22;5822;51.000;5.874;2022-10-22T16:16:32;18.40;99.90
11532;DHT22;5822;51.000;5.874;2022-10-22T16:18:58;18.40;99.90
11532;DHT22;5822;51.000;5.874;2022-10-22T16:21:24;18.40;99.90
11532;DHT22;5822;51.000;5.874;2022-10-22T16:23:50;18.40;99.90
11532;DHT22;5822;51.000;5.874;2022-10-22T16:26:17;18.40;99.90
11532;DHT22;5822;51.000;5.874;2022-10-22T16:28:50;18.40;99.90
11532;DHT22;5822;51.000;5.874;2022-10-22T16:31:17;18.30;99.90
11532;DHT22;5822;51.000;5.874;2022-10-22T16:33:44;18.30;99.90
11532;DHT22;5822;51.000;5.874;2022-10-22T16:36:16;18.30;99.90
11532;DHT22;5822;51.000;5.874;2022-10-22T16:38:43;18.20;99.90
11532;DHT22;5822;51.000;5.874;2022-10-22T16:41:20;18.20;99.90
11532;DHT22;5822;51.000;5.874;2022-10-22T16:43:47;18.10;99.90
11532;DHT22;5822;51.000;5.874;2022-10-22T16:46:15;18.00;99.90
11532;DHT22;5822;51.000;5.874;2022-10-22T16:48:48;18.00;99.90
11532;DHT22;5822;51.000;5.874;2022-10-22T16:51:17;18.10;99.90
11532;DHT22;5822;51.000;5.874;2022-10-22T16:53:44;18.10;99.90
11532;DHT22;5822;51.000;5.874;2022-10-22T16:56:14;18.10;99.90
11532;DHT22;5822;51.000;5.874;2022-10-22T16:58:45;18.10;99.90
11532;DHT22;5822;51.000;5.874;2022-10-22T17:01:11;18.10;99.90
11532;DHT22;5822;51.000;5.874;2022-10-22T17:03:36;18.00;99.90
11532;DHT22;5822;51.000;5.874;2022-10-22T17:06:03;17.90;99.90
11532;DHT22;5822;51.000;5.874;2022-10-22T17:08:30;17.90;99.90
11532;DHT22;5822;51.000;5.874;2022-10-22T17:10:56;17.90;99.90
11532;DHT22;5822;51.000;5.874;2022-10-22T17:13:22;18.00;99.90
11532;DHT22;5822;51.000;5.874;2022-10-22T17:15:47;18.00;99.90
11532;DHT22;5822;51.000;5.874;2022-10-22T17:18:13;18.00;99.90
11532;DHT22;5822;51.000;5.874;2022-10-22T17:20:42;18.00;99.90
11532;DHT22;5822;51.000;5.874;2022-10-22T17:23:08;17.90;99.90
11532;DHT22;5822;51.000;5.874;2022-10-22T17:25:35;17.90;99.90
11532;DHT22;5822;51.000;5.874;2022-10-22T17:28:00;17.90;99.90
11532;DHT22;5822;51.000;5.874;2022-10-22T17:30:26;17.90;99.90